sensor_id;sensor_type;location;lat;lon;timestamp;P1;durP1;ratioP1;P2;durP2;ratioP2
35909;SDS011;22004;49.120;-0.200;2023-11-21T00:02:20;4.32;;;2.05;;
35909;SDS011;22004;49.120;-0.200;2023-11-21T00:04:47;5.47;;;1.70;;
35909;SDS011;22004;49.120;-0.200;2023-11-21T00:07:13;4.43;;;1.88;;
35909;SDS011;22004;49.120;-0.200;2023-11-21T00:09:39;6.45;;;2.00;;
35909;SDS011;22004;49.120;-0.200;2023-11-21T00:12:05;4.20;;;2.20;;
35909;SDS011;22004;49.120;-0.200;2023-11-21T00:14:31;4.00;;;2.10;;
35909;SDS011;22004;49.120;-0.200;2023-11-21T00:16:56;4.32;;;1.70;;
35909;SDS011;22004;49.120;-0.200;2023-11-21T00:19:21;5.43;;;1.73;;
35909;SDS011;22004;49.120;-0.200;2023-11-21T00:21:46;4.22;;;1.67;;
35909;SDS011;22004;49.120;-0.200;2023-11-21T00:24:12;4.00;;;1.65;;
35909;SDS011;22004;49.120;-0.200;2023-11-21T00:26:39;5.88;;;1.77;;
35909;SDS011;22004;49.120;-0.200;2023-11-21T00:29:04;4.68;;;1.90;;
35909;SDS011;22004;49.120;-0.200;2023-11-21T00:31:33;5.57;;;1.60;;
35909;SDS011;22004;49.120;-0.200;2023-11-21T00:34:01;4.88;;;1.80;;
35909;SDS011;22004;49.120;-0.200;2023-11-21T00:36:30;4.25;;;1.77;;
35909;SDS011;22004;49.120;-0.200;2023-11-21T00:38:56;4.93;;;1.70;;
35909;SDS011;22004;49.120;-0.200;2023-11-21T00:41:22;4.18;;;1.50;;
35909;SDS011;22004;49.120;-0.200;2023-11-21T00:43:47;2.25;;;1.65;;
35909;SDS011;22004;49.120;-0.200;2023-11-21T00:46:12;5.07;;;1.70;;
35909;SDS011;22004;49.120;-0.200;2023-11-21T00:48:38;5.32;;;2.00;;
35909;SDS011;22004;49.120;-0.200;2023-11-21T00:51:04;4.60;;;1.70;;
35909;SDS011;22004;49.120;-0.200;2023-11-21T00:53:31;5.60;;;1.58;;
35909;SDS011;22004;49.120;-0.200;2023-11-21T00:55:56;4.20;;;1.60;;
35909;SDS011;22004;49.120;-0.200;2023-11-21T00:58:25;3.90;;;1.70;;
35909;SDS011;22004;49.120;-0.200;2023-11-21T01:00:51;3.13;;;1.60;;
35909;SDS011;22004;49.120;-0.200;2023-11-21T01:03:16;3.53;;;1.50;;
35909;SDS011;22004;49.120;-0.200;2023-11-21T01:05:41;5.97;;;1.60;;
35909;SDS011;22004;49.120;-0.200;2023-11-21T01:08:07;4.28;;;1.80;;
35909;SDS011;22004;49.120;-0.200;2023-11-21T01:10:32;4.88;;;1.77;;
35909;SDS011;22004;49.120;-0.200;2023-11-21T01:12:59;4.13;;;1.58;;
35909;SDS011;22004;49.120;-0.200;2023-11-21T01:15:24;6.18;;;1.60;;
35909;SDS011;22004;49.120;-0.200;2023-11-21T01:17:51;6.07;;;1.50;;
35909;SDS011;22004;49.120;-0.200;2023-11-21T01:20:16;3.30;;;1.35;;
35909;SDS011;22004;49.120;-0.200;2023-11-21T01:22:42;3.78;;;1.58;;
35909;SDS011;22004;49.120;-0.200;2023-11-21T01:25:08;5.50;;;1.48;;
35909;SDS011;22004;49.120;-0.200;2023-11-21T01:27:34;4.53;;;1.40;;
35909;SDS011;22004;49.120;-0.200;2023-11-21T01:30:00;4.00;;;1.60;;
35909;SDS011;22004;49.120;-0.200;2023-11-21T01:32:26;4.97;;;1.67;;
35909;SDS011;22004;49.120;-0.200;2023-11-21T01:34:51;5.15;;;1.55;;
35909;SDS011;22004;49.120;-0.200;2023-11-21T01:37:17;9.05;;;2.05;;
35909;SDS011;22004;49.120;-0.200;2023-11-21T01:39:42;7.22;;;1.88;;
35909;SDS011;22004;49.120;-0.200;2023-11-21T01:42:09;7.70;;;1.42;;
35909;SDS011;22004;49.120;-0.200;2023-11-21T01:44:37;6.13;;;1.67;;
35909;SDS011;22004;49.120;-0.200;2023-11-21T01:47:03;6.43;;;1.40;;
35909;SDS011;22004;49.120;-0.200;2023-11-21T01:49:34;5.47;;;1.95;;
35909;SDS011;22004;49.120;-0.200;2023-11-21T01:52:00;6.40;;;1.60;;
35909;SDS011;22004;49.120;-0.200;2023-11-21T01:54:26;2.70;;;1.05;;
35909;SDS011;22004;49.120;-0.200;2023-11-21T01:56:53;4.45;;;1.55;;
35909;SDS011;22004;49.120;-0.200;2023-11-21T01:59:19;3.90;;;1.45;;
35909;SDS011;22004;49.120;-0.200;2023-11-21T02:01:48;5.90;;;1.35;;
35909;SDS011;22004;49.120;-0.200;2023-11-21T02:04:15;4.22;;;1.17;;
35909;SDS011;22004;49.120;-0.200;2023-11-21T02:06:40;4.28;;;1.55;;
35909;SDS011;22004;49.120;-0.200;2023-11-21T02:09:06;6.88;;;1.60;;
35909;SDS011;22004;49.120;-0.200;2023-11-21T02:11:31;5.63;;;1.63;;
35909;SDS011;22004;49.120;-0.200;2023-11-21T02:13:59;4.95;;;1.35;;
35909;SDS011;22004;49.120;-0.200;2023-11-21T02:16:25;8.15;;;1.45;;
35909;SDS011;22004;49.120;-0.200;2023-11-21T02:18:52;3.53;;;1.30;;
35909;SDS011;22004;49.120;-0.200;2023-11-21T02:21:17;3.88;;;1.50;;
35909;SDS011;22004;49.120;-0.200;2023-11-21T02:23:44;4.53;;;1.38;;
35909;SDS011;22004;49.120;-0.200;2023-11-21T02:26:11;6.50;;;1.85;;
35909;SDS011;22004;49.120;-0.200;2023-11-21T02:28:37;7.93;;;1.35;;
35909;SDS011;22004;49.120;-0.200;2023-11-21T02:31:03;4.07;;;1.45;;
35909;SDS011;22004;49.120;-0.200;2023-11-21T02:33:29;6.47;;;1.45;;
35909;SDS011;22004;49.120;-0.200;2023-11-21T02:35:58;5.57;;;1.30;;
35909;SDS011;22004;49.120;-0.200;2023-11-21T02:38:24;6.30;;;1.92;;
35909;SDS011;22004;49.120;-0.200;2023-11-21T02:40:49;4.78;;;1.95;;
35909;SDS011;22004;49.120;-0.200;2023-11-21T02:43:15;5.00;;;1.33;;
35909;SDS011;22004;49.120;-0.200;2023-11-21T02:45:40;8.07;;;1.33;;
35909;SDS011;22004;49.120;-0.200;2023-11-21T02:48:06;4.15;;;1.15;;
35909;SDS011;22004;49.120;-0.200;2023-11-21T02:50:32;6.63;;;1.40;;
35909;SDS011;22004;49.120;-0.200;2023-11-21T02:52:57;5.00;;;1.10;;
35909;SDS011;22004;49.120;-0.200;2023-11-21T02:55:25;5.60;;;1.10;;
35909;SDS011;22004;49.120;-0.200;2023-11-21T02:57:51;4.68;;;1.48;;
35909;SDS011;22004;49.120;-0.200;2023-11-21T03:00:16;7.03;;;1.40;;
35909;SDS011;22004;49.120;-0.200;2023-11-21T03:02:42;3.97;;;1.33;;
35909;SDS011;22004;49.120;-0.200;2023-11-21T03:05:08;8.35;;;2.08;;
35909;SDS011;22004;49.120;-0.200;2023-11-21T03:07:35;8.30;;;1.50;;
35909;SDS011;22004;49.120;-0.200;2023-11-21T03:10:01;5.47;;;1.50;;
35909;SDS011;22004;49.120;-0.200;2023-11-21T03:12:28;4.25;;;1.13;;
35909;SDS011;22004;49.120;-0.200;2023-11-21T03:14:53;5.07;;;1.27;;
35909;SDS011;22004;49.120;-0.200;2023-11-21T03:17:19;11.30;;;2.17;;
35909;SDS011;22004;49.120;-0.200;2023-11-21T03:19:44;9.57;;;1.38;;
35909;SDS011;22004;49.120;-0.200;2023-11-21T03:22:09;8.98;;;2.08;;
35909;SDS011;22004;49.120;-0.200;2023-11-21T03:24:36;7.72;;;1.50;;
35909;SDS011;22004;49.120;-0.200;2023-11-21T03:27:03;4.10;;;1.50;;
35909;SDS011;22004;49.120;-0.200;2023-11-21T03:29:29;9.60;;;1.48;;
35909;SDS011;22004;49.120;-0.200;2023-11-21T03:31:54;6.80;;;1.27;;
35909;SDS011;22004;49.120;-0.200;2023-11-21T03:34:23;5.20;;;1.50;;
35909;SDS011;22004;49.120;-0.200;2023-11-21T03:36:50;6.57;;;1.27;;
35909;SDS011;22004;49.120;-0.200;2023-11-21T03:39:16;3.58;;;1.20;;
35909;SDS011;22004;49.120;-0.200;2023-11-21T03:41:41;5.13;;;1.25;;
35909;SDS011;22004;49.120;-0.200;2023-11-21T03:44:06;6.65;;;1.27;;
35909;SDS011;22004;49.120;-0.200;2023-11-21T03:46:32;3.75;;;1.40;;
35909;SDS011;22004;49.120;-0.200;2023-11-21T03:48:57;5.32;;;1.70;;
35909;SDS011;22004;49.120;-0.200;2023-11-21T03:51:22;4.55;;;1.20;;
35909;SDS011;22004;49.120;-0.200;2023-11-21T03:53:48;7.25;;;1.33;;
35909;SDS011;22004;49.120;-0.200;2023-11-21T03:56:13;6.53;;;1.50;;
35909;SDS011;22004;49.120;-0.200;2023-11-21T03:58:39;5.10;;;1.40;;
35909;SDS011;22004;49.120;-0.200;2023-11-21T04:01:05;3.85;;;1.33;;
35909;SDS011;22004;49.120;-0.200;2023-11-21T04:03:30;4.63;;;1.35;;
35909;SDS011;22004;49.120;-0.200;2023-11-21T04:05:56;4.13;;;1.30;;
35909;SDS011;22004;49.120;-0.200;2023-11-21T04:08:22;2.80;;;1.15;;
35909;SDS011;22004;49.120;-0.200;2023-11-21T04:10:47;3.33;;;1.05;;
35909;SDS011;22004;49.120;-0.200;2023-11-21T04:13:13;3.65;;;1.05;;
35909;SDS011;22004;49.120;-0.200;2023-11-21T04:15:38;5.32;;;1.45;;
35909;SDS011;22004;49.120;-0.200;2023-11-21T04:18:04;5.82;;;1.60;;
35909;SDS011;22004;49.120;-0.200;2023-11-21T04:20:29;6.10;;;1.23;;
35909;SDS011;22004;49.120;-0.200;2023-11-21T04:22:55;5.03;;;1.40;;
35909;SDS011;22004;49.120;-0.200;2023-11-21T04:25:20;12.70;;;1.40;;
35909;SDS011;22004;49.120;-0.200;2023-11-21T04:27:45;5.55;;;1.52;;
35909;SDS011;22004;49.120;-0.200;2023-11-21T04:30:11;5.90;;;1.40;;
35909;SDS011;22004;49.120;-0.200;2023-11-21T04:32:37;6.10;;;1.42;;
35909;SDS011;22004;49.120;-0.200;2023-11-21T04:35:04;3.92;;;1.33;;
35909;SDS011;22004;49.120;-0.200;2023-11-21T04:37:30;3.97;;;1.35;;
35909;SDS011;22004;49.120;-0.200;2023-11-21T04:39:55;3.35;;;1.10;;
35909;SDS011;22004;49.120;-0.200;2023-11-21T04:42:21;4.45;;;1.25;;
35909;SDS011;22004;49.120;-0.200;2023-11-21T04:44:46;3.97;;;1.13;;
35909;SDS011;22004;49.120;-0.200;2023-11-21T04:47:12;5.32;;;1.30;;
35909;SDS011;22004;49.120;-0.200;2023-11-21T04:49:37;7.35;;;1.65;;
35909;SDS011;22004;49.120;-0.200;2023-11-21T04:52:05;6.85;;;1.85;;
35909;SDS011;22004;49.120;-0.200;2023-11-21T04:54:30;2.85;;;0.95;;
35909;SDS011;22004;49.120;-0.200;2023-11-21T04:56:56;5.60;;;1.25;;
35909;SDS011;22004;49.120;-0.200;2023-11-21T04:59:21;5.05;;;1.30;;
35909;SDS011;22004;49.120;-0.200;2023-11-21T05:01:49;6.88;;;1.75;;
35909;SDS011;22004;49.120;-0.200;2023-11-21T05:04:15;3.83;;;1.25;;
35909;SDS011;22004;49.120;-0.200;2023-11-21T05:06:40;5.50;;;1.63;;
35909;SDS011;22004;49.120;-0.200;2023-11-21T05:09:06;6.45;;;1.33;;
35909;SDS011;22004;49.120;-0.200;2023-11-21T05:11:36;4.63;;;1.20;;
35909;SDS011;22004;49.120;-0.200;2023-11-21T05:14:01;4.32;;;1.30;;
35909;SDS011;22004;49.120;-0.200;2023-11-21T05:16:29;6.60;;;1.67;;
35909;SDS011;22004;49.120;-0.200;2023-11-21T05:18:54;5.70;;;1.42;;
35909;SDS011;22004;49.120;-0.200;2023-11-21T05:21:25;3.58;;;1.23;;
35909;SDS011;22004;49.120;-0.200;2023-11-21T05:23:51;5.10;;;1.55;;
35909;SDS011;22004;49.120;-0.200;2023-11-21T05:26:16;6.95;;;1.30;;
35909;SDS011;22004;49.120;-0.200;2023-11-21T05:28:41;4.65;;;1.52;;
35909;SDS011;22004;49.120;-0.200;2023-11-21T05:31:06;4.30;;;1.42;;
35909;SDS011;22004;49.120;-0.200;2023-11-21T05:33:32;6.07;;;1.85;;
35909;SDS011;22004;49.120;-0.200;2023-11-21T05:35:58;4.28;;;1.67;;
35909;SDS011;22004;49.120;-0.200;2023-11-21T05:38:23;4.72;;;1.83;;
35909;SDS011;22004;49.120;-0.200;2023-11-21T05:40:49;6.28;;;2.78;;
35909;SDS011;22004;49.120;-0.200;2023-11-21T05:43:14;4.57;;;1.48;;
35909;SDS011;22004;49.120;-0.200;2023-11-21T05:45:40;4.70;;;1.42;;
35909;SDS011;22004;49.120;-0.200;2023-11-21T05:48:06;6.75;;;1.92;;
35909;SDS011;22004;49.120;-0.200;2023-11-21T05:50:31;5.97;;;1.50;;
35909;SDS011;22004;49.120;-0.200;2023-11-21T05:52:57;3.03;;;1.33;;
35909;SDS011;22004;49.120;-0.200;2023-11-21T05:55:25;5.03;;;1.67;;
35909;SDS011;22004;49.120;-0.200;2023-11-21T05:57:51;4.85;;;1.35;;
35909;SDS011;22004;49.120;-0.200;2023-11-21T06:00:16;3.22;;;1.30;;
35909;SDS011;22004;49.120;-0.200;2023-11-21T06:02:49;6.32;;;1.30;;
35909;SDS011;22004;49.120;-0.200;2023-11-21T06:05:21;5.00;;;1.70;;
35909;SDS011;22004;49.120;-0.200;2023-11-21T06:07:49;3.90;;;1.40;;
35909;SDS011;22004;49.120;-0.200;2023-11-21T06:10:15;5.95;;;1.35;;
35909;SDS011;22004;49.120;-0.200;2023-11-21T06:12:42;4.05;;;1.20;;
35909;SDS011;22004;49.120;-0.200;2023-11-21T06:15:08;3.58;;;1.70;;
35909;SDS011;22004;49.120;-0.200;2023-11-21T06:17:37;5.10;;;1.60;;
35909;SDS011;22004;49.120;-0.200;2023-11-21T06:20:05;5.50;;;1.60;;
35909;SDS011;22004;49.120;-0.200;2023-11-21T06:22:37;6.10;;;1.17;;
35909;SDS011;22004;49.120;-0.200;2023-11-21T06:25:10;8.27;;;1.58;;
35909;SDS011;22004;49.120;-0.200;2023-11-21T06:27:38;6.07;;;1.30;;
35909;SDS011;22004;49.120;-0.200;2023-11-21T06:30:05;4.45;;;1.58;;
35909;SDS011;22004;49.120;-0.200;2023-11-21T06:32:32;4.72;;;1.60;;
35909;SDS011;22004;49.120;-0.200;2023-11-21T06:34:57;3.72;;;1.40;;
35909;SDS011;22004;49.120;-0.200;2023-11-21T06:37:28;6.18;;;1.63;;
35909;SDS011;22004;49.120;-0.200;2023-11-21T06:39:54;8.02;;;1.70;;
35909;SDS011;22004;49.120;-0.200;2023-11-21T06:42:19;5.75;;;1.27;;
35909;SDS011;22004;49.120;-0.200;2023-11-21T06:44:45;4.72;;;1.48;;
35909;SDS011;22004;49.120;-0.200;2023-11-21T06:47:11;4.95;;;1.58;;
35909;SDS011;22004;49.120;-0.200;2023-11-21T06:49:37;3.90;;;1.25;;
35909;SDS011;22004;49.120;-0.200;2023-11-21T06:52:03;5.78;;;1.60;;
35909;SDS011;22004;49.120;-0.200;2023-11-21T06:54:30;7.30;;;1.50;;
35909;SDS011;22004;49.120;-0.200;2023-11-21T06:56:56;8.77;;;1.70;;
35909;SDS011;22004;49.120;-0.200;2023-11-21T06:59:21;12.57;;;1.50;;
35909;SDS011;22004;49.120;-0.200;2023-11-21T07:01:47;7.45;;;1.73;;
35909;SDS011;22004;49.120;-0.200;2023-11-21T07:04:12;7.32;;;1.48;;
35909;SDS011;22004;49.120;-0.200;2023-11-21T07:06:37;4.45;;;1.38;;
35909;SDS011;22004;49.120;-0.200;2023-11-21T07:09:03;5.38;;;1.42;;
35909;SDS011;22004;49.120;-0.200;2023-11-21T07:11:28;3.80;;;1.25;;
35909;SDS011;22004;49.120;-0.200;2023-11-21T07:13:54;7.90;;;1.55;;
35909;SDS011;22004;49.120;-0.200;2023-11-21T07:16:20;8.25;;;1.60;;
35909;SDS011;22004;49.120;-0.200;2023-11-21T07:18:46;4.22;;;1.15;;
35909;SDS011;22004;49.120;-0.200;2023-11-21T07:21:11;6.72;;;1.30;;
35909;SDS011;22004;49.120;-0.200;2023-11-21T18:06:48;6.78;;;2.22;;
35909;SDS011;22004;49.120;-0.200;2023-11-21T18:09:14;3.58;;;1.70;;
35909;SDS011;22004;49.120;-0.200;2023-11-21T18:11:40;8.02;;;1.95;;
35909;SDS011;22004;49.120;-0.200;2023-11-21T18:14:06;5.78;;;2.28;;
35909;SDS011;22004;49.120;-0.200;2023-11-21T18:16:34;6.85;;;2.47;;
35909;SDS011;22004;49.120;-0.200;2023-11-21T18:19:01;8.48;;;3.38;;
35909;SDS011;22004;49.120;-0.200;2023-11-21T18:21:27;17.58;;;6.45;;
35909;SDS011;22004;49.120;-0.200;2023-11-21T18:23:52;6.30;;;2.72;;
35909;SDS011;22004;49.120;-0.200;2023-11-21T18:26:18;8.45;;;2.80;;
35909;SDS011;22004;49.120;-0.200;2023-11-21T18:28:43;5.05;;;2.17;;
35909;SDS011;22004;49.120;-0.200;2023-11-21T18:31:09;6.22;;;2.30;;
35909;SDS011;22004;49.120;-0.200;2023-11-21T18:33:34;6.65;;;2.15;;
35909;SDS011;22004;49.120;-0.200;2023-11-21T18:36:00;8.15;;;2.58;;
35909;SDS011;22004;49.120;-0.200;2023-11-21T18:38:25;6.30;;;2.00;;
35909;SDS011;22004;49.120;-0.200;2023-11-21T18:40:50;4.60;;;2.00;;
35909;SDS011;22004;49.120;-0.200;2023-11-21T18:43:16;7.65;;;2.28;;
35909;SDS011;22004;49.120;-0.200;2023-11-21T18:45:41;8.98;;;2.20;;
35909;SDS011;22004;49.120;-0.200;2023-11-21T18:48:08;4.10;;;2.25;;
35909;SDS011;22004;49.120;-0.200;2023-11-21T18:50:36;5.93;;;2.58;;
35909;SDS011;22004;49.120;-0.200;2023-11-21T18:53:01;4.43;;;2.30;;
35909;SDS011;22004;49.120;-0.200;2023-11-21T18:55:26;2.05;;;1.60;;
35909;SDS011;22004;49.120;-0.200;2023-11-21T18:57:52;2.63;;;1.60;;
35909;SDS011;22004;49.120;-0.200;2023-11-21T19:00:19;5.78;;;1.88;;
35909;SDS011;22004;49.120;-0.200;2023-11-21T19:02:45;4.07;;;2.00;;
35909;SDS011;22004;49.120;-0.200;2023-11-21T19:05:10;6.57;;;2.20;;
35909;SDS011;22004;49.120;-0.200;2023-11-21T19:07:36;4.60;;;2.15;;
35909;SDS011;22004;49.120;-0.200;2023-11-21T19:10:02;5.88;;;2.00;;
35909;SDS011;22004;49.120;-0.200;2023-11-21T19:12:30;4.38;;;2.03;;
35909;SDS011;22004;49.120;-0.200;2023-11-21T19:14:56;2.72;;;1.65;;
35909;SDS011;22004;49.120;-0.200;2023-11-21T19:17:21;3.60;;;1.70;;
35909;SDS011;22004;49.120;-0.200;2023-11-21T19:19:47;5.07;;;2.08;;
35909;SDS011;22004;49.120;-0.200;2023-11-21T19:22:13;5.70;;;2.00;;
35909;SDS011;22004;49.120;-0.200;2023-11-21T19:24:38;5.00;;;2.05;;
35909;SDS011;22004;49.120;-0.200;2023-11-21T19:27:04;5.32;;;2.75;;
35909;SDS011;22004;49.120;-0.200;2023-11-21T19:29:30;10.20;;;3.50;;
35909;SDS011;22004;49.120;-0.200;2023-11-21T19:31:55;4.22;;;2.00;;
35909;SDS011;22004;49.120;-0.200;2023-11-21T19:34:21;11.00;;;5.55;;
35909;SDS011;22004;49.120;-0.200;2023-11-21T19:36:47;6.22;;;2.90;;
35909;SDS011;22004;49.120;-0.200;2023-11-21T19:39:12;3.20;;;2.10;;
35909;SDS011;22004;49.120;-0.200;2023-11-21T19:41:37;4.47;;;2.70;;
35909;SDS011;22004;49.120;-0.200;2023-11-21T19:44:04;6.80;;;2.60;;
35909;SDS011;22004;49.120;-0.200;2023-11-21T19:46:29;9.77;;;3.35;;
35909;SDS011;22004;49.120;-0.200;2023-11-21T19:48:55;6.00;;;3.05;;
35909;SDS011;22004;49.120;-0.200;2023-11-21T19:51:21;3.78;;;2.40;;
35909;SDS011;22004;49.120;-0.200;2023-11-21T19:53:49;5.28;;;2.20;;
35909;SDS011;22004;49.120;-0.200;2023-11-21T19:56:15;4.60;;;2.60;;
35909;SDS011;22004;49.120;-0.200;2023-11-21T19:58:40;5.03;;;2.13;;
35909;SDS011;22004;49.120;-0.200;2023-11-21T20:01:06;7.65;;;2.83;;
35909;SDS011;22004;49.120;-0.200;2023-11-21T20:03:32;5.85;;;2.33;;
35909;SDS011;22004;49.120;-0.200;2023-11-21T20:06:00;4.28;;;2.40;;
35909;SDS011;22004;49.120;-0.200;2023-11-21T20:08:26;4.53;;;2.38;;
35909;SDS011;22004;49.120;-0.200;2023-11-21T20:10:55;3.75;;;2.30;;
35909;SDS011;22004;49.120;-0.200;2023-11-21T20:13:21;6.47;;;2.50;;
35909;SDS011;22004;49.120;-0.200;2023-11-21T20:15:46;4.85;;;2.53;;
35909;SDS011;22004;49.120;-0.200;2023-11-21T20:18:12;8.07;;;3.33;;
35909;SDS011;22004;49.120;-0.200;2023-11-21T20:20:37;4.82;;;2.25;;
35909;SDS011;22004;49.120;-0.200;2023-11-21T20:23:03;9.55;;;3.55;;
35909;SDS011;22004;49.120;-0.200;2023-11-21T20:25:28;10.52;;;5.22;;
35909;SDS011;22004;49.120;-0.200;2023-11-21T20:27:54;7.63;;;4.18;;
35909;SDS011;22004;49.120;-0.200;2023-11-21T20:30:20;15.63;;;6.53;;
35909;SDS011;22004;49.120;-0.200;2023-11-21T20:32:47;12.05;;;5.18;;
35909;SDS011;22004;49.120;-0.200;2023-11-21T20:35:15;8.30;;;3.60;;
35909;SDS011;22004;49.120;-0.200;2023-11-21T20:37:43;9.57;;;4.32;;
35909;SDS011;22004;49.120;-0.200;2023-11-21T20:40:08;9.40;;;4.30;;
35909;SDS011;22004;49.120;-0.200;2023-11-21T20:42:34;6.72;;;3.83;;
35909;SDS011;22004;49.120;-0.200;2023-11-21T20:45:00;9.55;;;4.65;;
35909;SDS011;22004;49.120;-0.200;2023-11-21T20:47:26;9.55;;;4.20;;
35909;SDS011;22004;49.120;-0.200;2023-11-21T20:49:51;9.88;;;3.63;;
35909;SDS011;22004;49.120;-0.200;2023-11-21T20:52:23;9.02;;;4.40;;
35909;SDS011;22004;49.120;-0.200;2023-11-21T20:54:49;8.38;;;4.15;;
35909;SDS011;22004;49.120;-0.200;2023-11-21T20:57:14;9.73;;;5.20;;
35909;SDS011;22004;49.120;-0.200;2023-11-21T20:59:40;10.05;;;4.20;;
35909;SDS011;22004;49.120;-0.200;2023-11-21T21:02:05;7.45;;;2.92;;
35909;SDS011;22004;49.120;-0.200;2023-11-21T21:04:31;7.85;;;3.70;;
35909;SDS011;22004;49.120;-0.200;2023-11-21T21:06:56;11.50;;;3.92;;
35909;SDS011;22004;49.120;-0.200;2023-11-21T21:09:22;11.60;;;3.85;;
35909;SDS011;22004;49.120;-0.200;2023-11-21T21:11:48;9.73;;;2.92;;
35909;SDS011;22004;49.120;-0.200;2023-11-21T21:14:14;11.25;;;4.40;;
35909;SDS011;22004;49.120;-0.200;2023-11-21T21:16:39;7.30;;;3.47;;
35909;SDS011;22004;49.120;-0.200;2023-11-21T21:19:06;10.15;;;3.58;;
35909;SDS011;22004;49.120;-0.200;2023-11-21T21:21:32;10.20;;;3.90;;
35909;SDS011;22004;49.120;-0.200;2023-11-21T21:23:58;7.55;;;3.30;;
35909;SDS011;22004;49.120;-0.200;2023-11-21T21:26:24;10.00;;;4.43;;
35909;SDS011;22004;49.120;-0.200;2023-11-21T21:28:50;8.98;;;3.53;;
35909;SDS011;22004;49.120;-0.200;2023-11-21T21:31:15;6.93;;;3.42;;
35909;SDS011;22004;49.120;-0.200;2023-11-21T21:33:41;7.10;;;3.50;;
35909;SDS011;22004;49.120;-0.200;2023-11-21T21:36:11;10.35;;;3.25;;
35909;SDS011;22004;49.120;-0.200;2023-11-21T21:38:37;8.68;;;3.22;;
35909;SDS011;22004;49.120;-0.200;2023-11-21T21:41:06;6.45;;;3.08;;
35909;SDS011;22004;49.120;-0.200;2023-11-21T21:43:32;11.43;;;4.20;;
35909;SDS011;22004;49.120;-0.200;2023-11-21T21:45:57;8.32;;;3.63;;
35909;SDS011;22004;49.120;-0.200;2023-11-21T21:48:23;7.90;;;3.22;;
35909;SDS011;22004;49.120;-0.200;2023-11-21T21:50:49;6.45;;;2.92;;
35909;SDS011;22004;49.120;-0.200;2023-11-21T21:53:14;10.18;;;3.55;;
35909;SDS011;22004;49.120;-0.200;2023-11-21T21:55:40;6.32;;;2.50;;
35909;SDS011;22004;49.120;-0.200;2023-11-21T21:58:05;11.75;;;3.20;;
35909;SDS011;22004;49.120;-0.200;2023-11-21T22:00:32;9.15;;;3.13;;
35909;SDS011;22004;49.120;-0.200;2023-11-21T22:02:57;10.85;;;4.00;;
35909;SDS011;22004;49.120;-0.200;2023-11-21T22:05:23;9.20;;;3.80;;
35909;SDS011;22004;49.120;-0.200;2023-11-21T22:07:49;8.40;;;3.33;;
35909;SDS011;22004;49.120;-0.200;2023-11-21T22:10:14;9.30;;;3.45;;
35909;SDS011;22004;49.120;-0.200;2023-11-21T22:12:39;6.35;;;2.35;;
